sensor_id;sensor_type;location;lat;lon;timestamp;P1;durP1;ratioP1;P2;durP2;ratioP2
76495;SDS011;65329;52.544;4.662;2023-02-24T00:01:27;3.78;;;0.65;;
76495;SDS011;65329;52.544;4.662;2023-02-24T00:03:55;2.63;;;0.50;;
76495;SDS011;65329;52.544;4.662;2023-02-24T00:06:24;2.88;;;0.70;;
76495;SDS011;65329;52.544;4.662;2023-02-24T00:09:03;5.15;;;0.88;;
76495;SDS011;65329;52.544;4.662;2023-02-24T00:11:32;0.98;;;0.35;;
76495;SDS011;65329;52.544;4.662;2023-02-24T00:14:00;6.72;;;0.65;;
76495;SDS011;65329;52.544;4.662;2023-02-24T00:16:31;2.95;;;0.75;;
76495;SDS011;65329;52.544;4.662;2023-02-24T00:18:59;2.72;;;0.52;;
76495;SDS011;65329;52.544;4.662;2023-02-24T00:21:27;1.33;;;0.40;;
76495;SDS011;65329;52.544;4.662;2023-02-24T00:23:54;2.78;;;0.35;;
76495;SDS011;65329;52.544;4.662;2023-02-24T00:26:24;4.45;;;0.73;;
76495;SDS011;65329;52.544;4.662;2023-02-24T00:28:52;5.05;;;0.50;;
76495;SDS011;65329;52.544;4.662;2023-02-24T00:31:19;7.97;;;0.85;;
76495;SDS011;65329;52.544;4.662;2023-02-24T00:33:50;3.65;;;0.30;;
76495;SDS011;65329;52.544;4.662;2023-02-24T00:36:18;1.02;;;0.30;;
76495;SDS011;65329;52.544;4.662;2023-02-24T00:38:50;2.85;;;0.40;;
76495;SDS011;65329;52.544;4.662;2023-02-24T00:41:22;6.15;;;0.30;;
76495;SDS011;65329;52.544;4.662;2023-02-24T00:44:02;3.38;;;0.50;;
76495;SDS011;65329;52.544;4.662;2023-02-24T00:46:38;3.60;;;0.30;;
76495;SDS011;65329;52.544;4.662;2023-02-24T00:49:08;3.13;;;0.38;;
76495;SDS011;65329;52.544;4.662;2023-02-24T00:51:39;3.78;;;0.43;;
76495;SDS011;65329;52.544;4.662;2023-02-24T00:54:07;4.05;;;0.73;;
76495;SDS011;65329;52.544;4.662;2023-02-24T00:56:38;4.13;;;0.43;;
76495;SDS011;65329;52.544;4.662;2023-02-24T00:59:06;4.85;;;0.40;;
76495;SDS011;65329;52.544;4.662;2023-02-24T01:01:33;3.35;;;0.45;;
76495;SDS011;65329;52.544;4.662;2023-02-24T01:04:01;5.63;;;0.82;;
76495;SDS011;65329;52.544;4.662;2023-02-24T01:06:40;1.40;;;0.30;;
76495;SDS011;65329;52.544;4.662;2023-02-24T01:09:10;3.35;;;0.57;;
76495;SDS011;65329;52.544;4.662;2023-02-24T01:11:41;3.58;;;0.93;;
76495;SDS011;65329;52.544;4.662;2023-02-24T01:14:29;3.30;;;0.60;;
76495;SDS011;65329;52.544;4.662;2023-02-24T01:16:57;2.60;;;0.60;;
76495;SDS011;65329;52.544;4.662;2023-02-24T01:19:26;2.65;;;0.32;;
76495;SDS011;65329;52.544;4.662;2023-02-24T01:22:00;7.53;;;0.70;;
76495;SDS011;65329;52.544;4.662;2023-02-24T01:24:33;2.45;;;0.47;;
76495;SDS011;65329;52.544;4.662;2023-02-24T01:27:01;2.05;;;0.40;;
76495;SDS011;65329;52.544;4.662;2023-02-24T01:29:28;2.42;;;0.40;;
76495;SDS011;65329;52.544;4.662;2023-02-24T01:31:56;3.28;;;0.32;;
76495;SDS011;65329;52.544;4.662;2023-02-24T01:34:24;3.53;;;0.40;;
76495;SDS011;65329;52.544;4.662;2023-02-24T01:36:56;1.50;;;0.35;;
76495;SDS011;65329;52.544;4.662;2023-02-24T01:39:23;9.00;;;1.13;;
76495;SDS011;65329;52.544;4.662;2023-02-24T01:41:51;3.53;;;0.38;;
76495;SDS011;65329;52.544;4.662;2023-02-24T01:46:51;3.78;;;0.70;;
76495;SDS011;65329;52.544;4.662;2023-02-24T01:49:24;2.13;;;0.30;;
76495;SDS011;65329;52.544;4.662;2023-02-24T01:52:01;3.47;;;0.65;;
76495;SDS011;65329;52.544;4.662;2023-02-24T01:54:33;4.05;;;1.40;;
76495;SDS011;65329;52.544;4.662;2023-02-24T01:57:09;4.22;;;0.63;;
76495;SDS011;65329;52.544;4.662;2023-02-24T01:59:42;2.95;;;0.50;;
76495;SDS011;65329;52.544;4.662;2023-02-24T02:02:11;2.35;;;0.40;;
76495;SDS011;65329;52.544;4.662;2023-02-24T02:07:21;3.90;;;0.60;;
76495;SDS011;65329;52.544;4.662;2023-02-24T02:09:52;2.97;;;0.50;;
76495;SDS011;65329;52.544;4.662;2023-02-24T02:12:20;3.25;;;0.50;;
76495;SDS011;65329;52.544;4.662;2023-02-24T02:14:50;6.22;;;0.50;;
76495;SDS011;65329;52.544;4.662;2023-02-24T02:20:17;3.35;;;0.22;;
76495;SDS011;65329;52.544;4.662;2023-02-24T02:42:21;7.90;;;0.50;;
76495;SDS011;65329;52.544;4.662;2023-02-24T02:53:09;1.38;;;0.20;;
76495;SDS011;65329;52.544;4.662;2023-02-24T02:55:51;6.05;;;1.85;;
76495;SDS011;65329;52.544;4.662;2023-02-24T02:58:28;3.72;;;0.80;;
76495;SDS011;65329;52.544;4.662;2023-02-24T03:01:00;3.60;;;0.30;;
76495;SDS011;65329;52.544;4.662;2023-02-24T03:03:37;1.27;;;0.40;;
76495;SDS011;65329;52.544;4.662;2023-02-24T03:06:09;4.50;;;0.70;;
76495;SDS011;65329;52.544;4.662;2023-02-24T03:08:42;3.85;;;0.70;;
76495;SDS011;65329;52.544;4.662;2023-02-24T03:11:19;5.00;;;0.70;;
76495;SDS011;65329;52.544;4.662;2023-02-24T03:13:47;2.08;;;0.35;;
76495;SDS011;65329;52.544;4.662;2023-02-24T03:16:20;7.95;;;1.05;;
76495;SDS011;65329;52.544;4.662;2023-02-24T03:18:52;4.35;;;0.73;;
76495;SDS011;65329;52.544;4.662;2023-02-24T03:23:54;3.25;;;0.63;;
76495;SDS011;65329;52.544;4.662;2023-02-24T03:26:24;3.97;;;0.47;;
76495;SDS011;65329;52.544;4.662;2023-02-24T03:34:18;4.90;;;0.82;;
76495;SDS011;65329;52.544;4.662;2023-02-24T03:36:49;1.65;;;0.60;;
76495;SDS011;65329;52.544;4.662;2023-02-24T03:39:20;3.78;;;0.95;;
76495;SDS011;65329;52.544;4.662;2023-02-24T03:42:17;2.58;;;0.70;;
76495;SDS011;65329;52.544;4.662;2023-02-24T03:44:45;2.85;;;0.77;;
76495;SDS011;65329;52.544;4.662;2023-02-24T03:47:13;1.83;;;0.32;;
76495;SDS011;65329;52.544;4.662;2023-02-24T03:49:43;4.45;;;0.73;;
76495;SDS011;65329;52.544;4.662;2023-02-24T03:55:33;3.50;;;1.00;;
76495;SDS011;65329;52.544;4.662;2023-02-24T04:15:25;7.00;;;1.77;;
76495;SDS011;65329;52.544;4.662;2023-02-24T04:18:05;9.55;;;1.42;;
76495;SDS011;65329;52.544;4.662;2023-02-24T04:20:41;8.27;;;2.08;;
76495;SDS011;65329;52.544;4.662;2023-02-24T04:23:13;4.05;;;1.25;;
76495;SDS011;65329;52.544;4.662;2023-02-24T04:25:45;4.05;;;1.25;;
76495;SDS011;65329;52.544;4.662;2023-02-24T04:30:45;8.85;;;1.42;;
76495;SDS011;65329;52.544;4.662;2023-02-24T04:33:16;4.28;;;1.30;;
76495;SDS011;65329;52.544;4.662;2023-02-24T04:35:44;6.90;;;1.90;;
76495;SDS011;65329;52.544;4.662;2023-02-24T04:38:11;8.32;;;1.90;;
76495;SDS011;65329;52.544;4.662;2023-02-24T04:40:38;6.20;;;1.85;;
76495;SDS011;65329;52.544;4.662;2023-02-24T04:43:08;3.80;;;1.55;;
76495;SDS011;65329;52.544;4.662;2023-02-24T04:45:35;7.13;;;1.70;;
76495;SDS011;65329;52.544;4.662;2023-02-24T04:48:05;6.97;;;1.38;;
76495;SDS011;65329;52.544;4.662;2023-02-24T04:50:41;4.28;;;2.55;;
76495;SDS011;65329;52.544;4.662;2023-02-24T04:53:13;8.00;;;1.85;;
76495;SDS011;65329;52.544;4.662;2023-02-24T04:55:42;10.02;;;1.75;;
76495;SDS011;65329;52.544;4.662;2023-02-24T04:58:20;7.25;;;1.48;;
76495;SDS011;65329;52.544;4.662;2023-02-24T05:00:51;5.15;;;1.20;;
76495;SDS011;65329;52.544;4.662;2023-02-24T05:03:19;8.82;;;1.92;;
76495;SDS011;65329;52.544;4.662;2023-02-24T05:05:51;12.00;;;1.60;;
76495;SDS011;65329;52.544;4.662;2023-02-24T05:08:22;10.35;;;1.30;;
76495;SDS011;65329;52.544;4.662;2023-02-24T05:10:50;8.77;;;2.17;;
76495;SDS011;65329;52.544;4.662;2023-02-24T05:13:22;6.40;;;0.93;;
76495;SDS011;65329;52.544;4.662;2023-02-24T05:15:53;4.97;;;1.40;;
76495;SDS011;65329;52.544;4.662;2023-02-24T05:18:22;7.75;;;1.27;;
76495;SDS011;65329;52.544;4.662;2023-02-24T05:20:51;4.28;;;0.90;;
76495;SDS011;65329;52.544;4.662;2023-02-24T05:23:39;8.63;;;1.10;;
76495;SDS011;65329;52.544;4.662;2023-02-24T05:26:12;8.27;;;1.52;;
76495;SDS011;65329;52.544;4.662;2023-02-24T05:28:43;5.05;;;1.45;;
76495;SDS011;65329;52.544;4.662;2023-02-24T05:31:19;7.20;;;1.63;;
76495;SDS011;65329;52.544;4.662;2023-02-24T05:33:50;3.38;;;1.10;;
76495;SDS011;65329;52.544;4.662;2023-02-24T05:36:24;7.70;;;1.42;;
76495;SDS011;65329;52.544;4.662;2023-02-24T05:38:55;10.32;;;1.85;;
76495;SDS011;65329;52.544;4.662;2023-02-24T05:41:31;7.78;;;1.23;;
76495;SDS011;65329;52.544;4.662;2023-02-24T05:44:12;9.25;;;1.35;;
76495;SDS011;65329;52.544;4.662;2023-02-24T05:46:43;12.00;;;1.77;;
76495;SDS011;65329;52.544;4.662;2023-02-24T05:51:53;4.88;;;0.90;;
76495;SDS011;65329;52.544;4.662;2023-02-24T05:57:08;7.13;;;1.08;;
76495;SDS011;65329;52.544;4.662;2023-02-24T05:59:42;9.02;;;1.40;;
76495;SDS011;65329;52.544;4.662;2023-02-24T06:02:11;8.50;;;1.70;;
76495;SDS011;65329;52.544;4.662;2023-02-24T06:04:41;9.07;;;1.42;;
76495;SDS011;65329;52.544;4.662;2023-02-24T06:07:23;4.82;;;1.25;;
76495;SDS011;65329;52.544;4.662;2023-02-24T06:09:56;4.28;;;1.30;;
76495;SDS011;65329;52.544;4.662;2023-02-24T06:12:27;7.65;;;1.60;;
76495;SDS011;65329;52.544;4.662;2023-02-24T06:14:56;8.55;;;1.60;;
76495;SDS011;65329;52.544;4.662;2023-02-24T06:17:24;6.03;;;1.38;;
76495;SDS011;65329;52.544;4.662;2023-02-24T06:19:51;14.60;;;3.75;;
76495;SDS011;65329;52.544;4.662;2023-02-24T06:22:20;9.43;;;2.22;;
76495;SDS011;65329;52.544;4.662;2023-02-24T06:24:48;13.65;;;1.77;;
76495;SDS011;65329;52.544;4.662;2023-02-24T06:27:17;8.48;;;1.42;;
76495;SDS011;65329;52.544;4.662;2023-02-24T06:29:50;7.95;;;1.33;;
76495;SDS011;65329;52.544;4.662;2023-02-24T06:32:20;10.80;;;1.75;;
76495;SDS011;65329;52.544;4.662;2023-02-24T06:34:50;9.68;;;2.15;;
76495;SDS011;65329;52.544;4.662;2023-02-24T06:37:17;9.88;;;1.45;;
76495;SDS011;65329;52.544;4.662;2023-02-24T06:39:44;9.13;;;1.60;;
76495;SDS011;65329;52.544;4.662;2023-02-24T06:42:11;6.97;;;1.48;;
76495;SDS011;65329;52.544;4.662;2023-02-24T06:44:39;8.05;;;1.35;;
76495;SDS011;65329;52.544;4.662;2023-02-24T06:47:07;7.93;;;1.27;;
76495;SDS011;65329;52.544;4.662;2023-02-24T06:49:36;8.18;;;1.80;;
76495;SDS011;65329;52.544;4.662;2023-02-24T06:52:03;10.48;;;1.83;;
76495;SDS011;65329;52.544;4.662;2023-02-24T06:54:31;7.43;;;1.20;;
76495;SDS011;65329;52.544;4.662;2023-02-24T06:57:01;14.70;;;2.72;;
76495;SDS011;65329;52.544;4.662;2023-02-24T06:59:29;6.82;;;2.42;;
76495;SDS011;65329;52.544;4.662;2023-02-24T07:01:57;7.03;;;0.93;;
76495;SDS011;65329;52.544;4.662;2023-02-24T07:04:27;3.95;;;1.02;;
76495;SDS011;65329;52.544;4.662;2023-02-24T07:06:56;12.88;;;1.48;;
76495;SDS011;65329;52.544;4.662;2023-02-24T07:09:29;12.25;;;1.15;;
76495;SDS011;65329;52.544;4.662;2023-02-24T07:11:56;9.32;;;2.15;;
76495;SDS011;65329;52.544;4.662;2023-02-24T07:14:25;7.72;;;1.70;;
76495;SDS011;65329;52.544;4.662;2023-02-24T07:16:56;8.57;;;1.55;;
76495;SDS011;65329;52.544;4.662;2023-02-24T07:19:25;11.68;;;1.63;;
76495;SDS011;65329;52.544;4.662;2023-02-24T07:21:56;10.23;;;2.15;;
76495;SDS011;65329;52.544;4.662;2023-02-24T07:24:32;7.65;;;1.25;;
76495;SDS011;65329;52.544;4.662;2023-02-24T07:27:07;12.02;;;1.50;;
76495;SDS011;65329;52.544;4.662;2023-02-24T07:29:36;10.25;;;1.42;;
76495;SDS011;65329;52.544;4.662;2023-02-24T07:32:07;11.80;;;2.00;;
76495;SDS011;65329;52.544;4.662;2023-02-24T07:34:36;10.35;;;1.35;;
76495;SDS011;65329;52.544;4.662;2023-02-24T07:37:06;6.60;;;1.60;;
76495;SDS011;65329;52.544;4.662;2023-02-24T07:39:35;5.35;;;1.30;;
76495;SDS011;65329;52.544;4.662;2023-02-24T07:42:03;14.20;;;1.83;;
76495;SDS011;65329;52.544;4.662;2023-02-24T07:44:41;14.82;;;1.75;;
76495;SDS011;65329;52.544;4.662;2023-02-24T07:47:10;7.57;;;2.17;;
76495;SDS011;65329;52.544;4.662;2023-02-24T07:49:39;7.05;;;1.02;;
76495;SDS011;65329;52.544;4.662;2023-02-24T07:52:06;9.18;;;1.48;;
76495;SDS011;65329;52.544;4.662;2023-02-24T07:54:34;9.52;;;2.22;;
76495;SDS011;65329;52.544;4.662;2023-02-24T07:57:01;4.93;;;2.00;;
76495;SDS011;65329;52.544;4.662;2023-02-24T07:59:29;12.52;;;2.90;;
76495;SDS011;65329;52.544;4.662;2023-02-24T08:01:58;18.88;;;2.50;;
76495;SDS011;65329;52.544;4.662;2023-02-24T08:04:29;14.80;;;3.08;;
76495;SDS011;65329;52.544;4.662;2023-02-24T08:06:58;10.07;;;1.90;;
76495;SDS011;65329;52.544;4.662;2023-02-24T08:09:29;7.28;;;1.77;;
76495;SDS011;65329;52.544;4.662;2023-02-24T08:12:14;12.68;;;2.38;;
76495;SDS011;65329;52.544;4.662;2023-02-24T08:14:44;12.43;;;3.53;;
76495;SDS011;65329;52.544;4.662;2023-02-24T08:17:17;16.70;;;3.30;;
76495;SDS011;65329;52.544;4.662;2023-02-24T08:19:46;17.25;;;4.32;;
76495;SDS011;65329;52.544;4.662;2023-02-24T08:22:14;11.98;;;3.42;;
76495;SDS011;65329;52.544;4.662;2023-02-24T08:24:57;10.15;;;3.53;;
76495;SDS011;65329;52.544;4.662;2023-02-24T08:27:32;5.72;;;2.42;;
76495;SDS011;65329;52.544;4.662;2023-02-24T08:30:04;12.80;;;3.20;;
76495;SDS011;65329;52.544;4.662;2023-02-24T08:35:12;13.18;;;4.07;;
76495;SDS011;65329;52.544;4.662;2023-02-24T08:37:42;28.08;;;5.25;;
76495;SDS011;65329;52.544;4.662;2023-02-24T08:40:21;14.63;;;4.72;;
76495;SDS011;65329;52.544;4.662;2023-02-24T08:43:06;13.90;;;4.45;;
76495;SDS011;65329;52.544;4.662;2023-02-24T08:48:40;18.13;;;5.55;;
76495;SDS011;65329;52.544;4.662;2023-02-24T08:51:17;11.80;;;4.68;;
76495;SDS011;65329;52.544;4.662;2023-02-24T08:53:58;14.45;;;6.05;;
76495;SDS011;65329;52.544;4.662;2023-02-24T08:56:37;17.08;;;5.43;;
76495;SDS011;65329;52.544;4.662;2023-02-24T08:59:10;12.20;;;5.85;;
76495;SDS011;65329;52.544;4.662;2023-02-24T09:01:55;15.15;;;5.45;;
76495;SDS011;65329;52.544;4.662;2023-02-24T09:05:03;14.13;;;6.07;;
76495;SDS011;65329;52.544;4.662;2023-02-24T09:07:40;22.90;;;7.43;;
76495;SDS011;65329;52.544;4.662;2023-02-24T09:10:10;23.45;;;6.72;;
76495;SDS011;65329;52.544;4.662;2023-02-24T09:12:43;21.40;;;7.15;;
76495;SDS011;65329;52.544;4.662;2023-02-24T09:15:11;21.10;;;6.70;;
76495;SDS011;65329;52.544;4.662;2023-02-24T09:17:41;18.55;;;6.15;;
76495;SDS011;65329;52.544;4.662;2023-02-24T09:20:28;17.05;;;6.97;;
76495;SDS011;65329;52.544;4.662;2023-02-24T09:23:13;16.30;;;6.45;;
76495;SDS011;65329;52.544;4.662;2023-02-24T09:25:55;16.02;;;6.50;;
76495;SDS011;65329;52.544;4.662;2023-02-24T09:28:23;18.30;;;6.40;;
76495;SDS011;65329;52.544;4.662;2023-02-24T09:30:53;19.65;;;6.00;;
76495;SDS011;65329;52.544;4.662;2023-02-24T09:33:23;16.30;;;6.00;;
76495;SDS011;65329;52.544;4.662;2023-02-24T09:36:06;21.10;;;6.78;;
76495;SDS011;65329;52.544;4.662;2023-02-24T09:41:37;16.77;;;6.82;;
76495;SDS011;65329;52.544;4.662;2023-02-24T09:49:47;15.80;;;6.25;;
76495;SDS011;65329;52.544;4.662;2023-02-24T09:52:23;18.30;;;6.63;;
76495;SDS011;65329;52.544;4.662;2023-02-24T09:55:52;11.32;;;4.45;;
76495;SDS011;65329;52.544;4.662;2023-02-24T09:58:11;15.02;;;4.80;;
76495;SDS011;65329;52.544;4.662;2023-02-24T10:01:03;15.25;;;4.70;;
76495;SDS011;65329;52.544;4.662;2023-02-24T10:03:54;18.40;;;5.30;;
76495;SDS011;65329;52.544;4.662;2023-02-24T10:06:45;15.40;;;2.92;;
76495;SDS011;65329;52.544;4.662;2023-02-24T10:09:34;10.68;;;3.40;;
76495;SDS011;65329;52.544;4.662;2023-02-24T10:14:38;13.70;;;2.70;;
76495;SDS011;65329;52.544;4.662;2023-02-24T10:19:54;14.38;;;3.20;;
76495;SDS011;65329;52.544;4.662;2023-02-24T10:22:42;9.25;;;2.50;;
76495;SDS011;65329;52.544;4.662;2023-02-24T10:33:36;8.20;;;1.83;;
76495;SDS011;65329;52.544;4.662;2023-02-24T10:36:12;10.55;;;1.90;;
76495;SDS011;65329;52.544;4.662;2023-02-24T10:38:43;14.57;;;3.08;;
76495;SDS011;65329;52.544;4.662;2023-02-24T10:41:12;11.80;;;1.80;;
76495;SDS011;65329;52.544;4.662;2023-02-24T10:43:40;17.60;;;2.00;;
76495;SDS011;65329;52.544;4.662;2023-02-24T10:46:21;11.23;;;1.98;;
76495;SDS011;65329;52.544;4.662;2023-02-24T10:49:08;10.88;;;2.10;;
76495;SDS011;65329;52.544;4.662;2023-02-24T10:51:43;17.63;;;2.40;;
76495;SDS011;65329;52.544;4.662;2023-02-24T10:54:22;12.60;;;2.05;;
76495;SDS011;65329;52.544;4.662;2023-02-24T10:57:10;15.38;;;3.67;;
76495;SDS011;65329;52.544;4.662;2023-02-24T11:02:25;21.38;;;3.63;;
76495;SDS011;65329;52.544;4.662;2023-02-24T11:04:56;15.73;;;2.80;;
76495;SDS011;65329;52.544;4.662;2023-02-24T11:08:03;18.50;;;2.60;;
76495;SDS011;65329;52.544;4.662;2023-02-24T11:10:41;15.98;;;2.80;;
76495;SDS011;65329;52.544;4.662;2023-02-24T11:13:18;16.17;;;2.58;;
76495;SDS011;65329;52.544;4.662;2023-02-24T11:16:06;18.45;;;3.30;;
76495;SDS011;65329;52.544;4.662;2023-02-24T11:18:54;13.80;;;2.75;;
76495;SDS011;65329;52.544;4.662;2023-02-24T11:21:25;15.60;;;3.42;;
76495;SDS011;65329;52.544;4.662;2023-02-24T11:23:55;17.75;;;3.20;;
76495;SDS011;65329;52.544;4.662;2023-02-24T11:26:25;20.20;;;2.95;;
76495;SDS011;65329;52.544;4.662;2023-02-24T11:37:38;16.38;;;2.45;;
76495;SDS011;65329;52.544;4.662;2023-02-24T11:40:13;10.68;;;1.92;;
76495;SDS011;65329;52.544;4.662;2023-02-24T11:45:32;12.82;;;3.00;;
76495;SDS011;65329;52.544;4.662;2023-02-24T11:48:08;17.83;;;2.78;;
76495;SDS011;65329;52.544;4.662;2023-02-24T11:53:37;15.18;;;2.72;;
76495;SDS011;65329;52.544;4.662;2023-02-24T11:56:27;16.02;;;2.58;;
76495;SDS011;65329;52.544;4.662;2023-02-24T12:04:21;9.52;;;1.88;;
76495;SDS011;65329;52.544;4.662;2023-02-24T12:06:56;14.40;;;2.33;;
76495;SDS011;65329;52.544;4.662;2023-02-24T12:09:25;13.60;;;2.13;;
76495;SDS011;65329;52.544;4.662;2023-02-24T12:12:02;15.45;;;2.50;;
76495;SDS011;65329;52.544;4.662;2023-02-24T12:14:38;16.17;;;3.53;;
76495;SDS011;65329;52.544;4.662;2023-02-24T12:17:12;14.75;;;3.55;;
76495;SDS011;65329;52.544;4.662;2023-02-24T12:22:17;11.43;;;2.55;;
76495;SDS011;65329;52.544;4.662;2023-02-24T12:24:45;19.92;;;2.65;;
76495;SDS011;65329;52.544;4.662;2023-02-24T12:27:31;13.90;;;2.80;;
76495;SDS011;65329;52.544;4.662;2023-02-24T12:36:07;10.57;;;1.50;;
76495;SDS011;65329;52.544;4.662;2023-02-24T12:39:09;12.70;;;1.90;;
76495;SDS011;65329;52.544;4.662;2023-02-24T12:44:37;8.18;;;1.58;;
76495;SDS011;65329;52.544;4.662;2023-02-24T12:47:13;7.40;;;1.30;;
76495;SDS011;65329;52.544;4.662;2023-02-24T12:52:19;6.03;;;1.35;;
76495;SDS011;65329;52.544;4.662;2023-02-24T13:03:14;14.82;;;1.83;;
76495;SDS011;65329;52.544;4.662;2023-02-24T13:05:50;14.00;;;2.22;;
76495;SDS011;65329;52.544;4.662;2023-02-24T13:11:12;13.20;;;1.65;;
76495;SDS011;65329;52.544;4.662;2023-02-24T13:16:30;12.55;;;1.95;;
76495;SDS011;65329;52.544;4.662;2023-02-24T13:19:44;14.13;;;1.98;;
76495;SDS011;65329;52.544;4.662;2023-02-24T13:22:02;14.68;;;2.33;;
76495;SDS011;65329;52.544;4.662;2023-02-24T13:24:33;13.05;;;2.17;;
76495;SDS011;65329;52.544;4.662;2023-02-24T13:32:39;8.48;;;1.52;;
76495;SDS011;65329;52.544;4.662;2023-02-24T13:37:44;11.02;;;1.33;;
76495;SDS011;65329;52.544;4.662;2023-02-24T13:42:56;5.88;;;1.35;;
76495;SDS011;65329;52.544;4.662;2023-02-24T13:45:33;5.55;;;0.82;;
76495;SDS011;65329;52.544;4.662;2023-02-24T14:04:37;7.13;;;0.95;;
76495;SDS011;65329;52.544;4.662;2023-02-24T14:07:11;3.65;;;0.40;;
76495;SDS011;65329;52.544;4.662;2023-02-24T14:09:47;9.75;;;2.45;;
76495;SDS011;65329;52.544;4.662;2023-02-24T14:12:19;7.90;;;1.08;;
76495;SDS011;65329;52.544;4.662;2023-02-24T14:14:50;5.85;;;0.55;;
76495;SDS011;65329;52.544;4.662;2023-02-24T14:17:29;6.63;;;1.42;;
76495;SDS011;65329;52.544;4.662;2023-02-24T14:22:57;5.30;;;0.80;;
76495;SDS011;65329;52.544;4.662;2023-02-24T14:25:29;5.65;;;0.85;;
76495;SDS011;65329;52.544;4.662;2023-02-24T14:28:01;9.05;;;1.08;;
76495;SDS011;65329;52.544;4.662;2023-02-24T14:30:36;5.70;;;1.38;;
76495;SDS011;65329;52.544;4.662;2023-02-24T14:33:07;10.57;;;1.40;;
76495;SDS011;65329;52.544;4.662;2023-02-24T14:35:46;7.63;;;1.10;;
76495;SDS011;65329;52.544;4.662;2023-02-24T14:41:06;7.65;;;1.13;;
76495;SDS011;65329;52.544;4.662;2023-02-24T14:43:43;9.18;;;1.50;;
76495;SDS011;65329;52.544;4.662;2023-02-24T14:46:10;9.82;;;1.00;;
76495;SDS011;65329;52.544;4.662;2023-02-24T14:48:37;6.65;;;1.15;;
76495;SDS011;65329;52.544;4.662;2023-02-24T14:53:39;8.27;;;1.63;;
76495;SDS011;65329;52.544;4.662;2023-02-24T14:56:11;2.10;;;0.32;;
76495;SDS011;65329;52.544;4.662;2023-02-24T14:58:50;3.50;;;0.40;;
76495;SDS011;65329;52.544;4.662;2023-02-24T15:01:47;3.00;;;0.52;;
76495;SDS011;65329;52.544;4.662;2023-02-24T15:07:03;3.28;;;0.80;;
76495;SDS011;65329;52.544;4.662;2023-02-24T15:09:34;3.15;;;0.47;;
76495;SDS011;65329;52.544;4.662;2023-02-24T15:12:10;4.55;;;0.93;;
76495;SDS011;65329;52.544;4.662;2023-02-24T15:17:28;6.28;;;0.70;;
76495;SDS011;65329;52.544;4.662;2023-02-24T15:19:55;8.88;;;1.10;;
76495;SDS011;65329;52.544;4.662;2023-02-24T15:25:18;8.90;;;1.73;;
76495;SDS011;65329;52.544;4.662;2023-02-24T15:28:00;8.48;;;1.60;;
76495;SDS011;65329;52.544;4.662;2023-02-24T15:30:37;10.75;;;1.52;;
76495;SDS011;65329;52.544;4.662;2023-02-24T15:33:19;11.35;;;1.92;;
76495;SDS011;65329;52.544;4.662;2023-02-24T15:35:52;10.75;;;1.40;;
76495;SDS011;65329;52.544;4.662;2023-02-24T15:38:29;8.15;;;1.20;;
76495;SDS011;65329;52.544;4.662;2023-02-24T15:40:58;7.45;;;0.82;;
76495;SDS011;65329;52.544;4.662;2023-02-24T15:43:31;7.35;;;1.60;;
76495;SDS011;65329;52.544;4.662;2023-02-24T15:46:14;11.75;;;2.03;;
76495;SDS011;65329;52.544;4.662;2023-02-24T15:48:46;10.32;;;1.40;;
76495;SDS011;65329;52.544;4.662;2023-02-24T15:53:58;14.95;;;1.70;;
76495;SDS011;65329;52.544;4.662;2023-02-24T15:56:27;10.55;;;1.48;;
76495;SDS011;65329;52.544;4.662;2023-02-24T15:58:56;15.45;;;2.58;;
76495;SDS011;65329;52.544;4.662;2023-02-24T16:01:28;16.77;;;2.15;;
76495;SDS011;65329;52.544;4.662;2023-02-24T16:03:56;9.98;;;1.48;;
76495;SDS011;65329;52.544;4.662;2023-02-24T16:06:23;13.85;;;3.08;;
76495;SDS011;65329;52.544;4.662;2023-02-24T16:08:52;11.30;;;2.17;;
76495;SDS011;65329;52.544;4.662;2023-02-24T16:11:22;13.40;;;1.92;;
76495;SDS011;65329;52.544;4.662;2023-02-24T16:13:54;9.52;;;1.92;;
76495;SDS011;65329;52.544;4.662;2023-02-24T16:16:23;16.08;;;2.50;;
76495;SDS011;65329;52.544;4.662;2023-02-24T16:18:51;10.88;;;2.03;;
76495;SDS011;65329;52.544;4.662;2023-02-24T16:21:19;8.98;;;2.08;;
76495;SDS011;65329;52.544;4.662;2023-02-24T16:23:47;6.85;;;1.15;;
76495;SDS011;65329;52.544;4.662;2023-02-24T16:26:23;9.75;;;1.40;;
76495;SDS011;65329;52.544;4.662;2023-02-24T16:28:52;7.45;;;1.70;;
76495;SDS011;65329;52.544;4.662;2023-02-24T16:31:21;8.43;;;1.20;;
76495;SDS011;65329;52.544;4.662;2023-02-24T16:33:52;9.70;;;1.63;;
76495;SDS011;65329;52.544;4.662;2023-02-24T16:36:22;11.10;;;2.25;;
76495;SDS011;65329;52.544;4.662;2023-02-24T16:38:51;9.60;;;1.55;;
76495;SDS011;65329;52.544;4.662;2023-02-24T16:41:18;12.98;;;1.55;;
76495;SDS011;65329;52.544;4.662;2023-02-24T16:43:45;16.73;;;2.17;;
76495;SDS011;65329;52.544;4.662;2023-02-24T16:46:14;12.40;;;2.22;;
76495;SDS011;65329;52.544;4.662;2023-02-24T16:48:43;10.00;;;1.88;;
76495;SDS011;65329;52.544;4.662;2023-02-24T16:51:13;14.82;;;2.10;;
76495;SDS011;65329;52.544;4.662;2023-02-24T16:53:41;13.57;;;1.83;;
76495;SDS011;65329;52.544;4.662;2023-02-24T16:56:08;10.27;;;1.98;;
76495;SDS011;65329;52.544;4.662;2023-02-24T16:58:35;7.10;;;1.73;;
76495;SDS011;65329;52.544;4.662;2023-02-24T17:01:02;17.83;;;3.15;;
76495;SDS011;65329;52.544;4.662;2023-02-24T17:03:31;10.77;;;1.75;;
76495;SDS011;65329;52.544;4.662;2023-02-24T17:06:03;10.80;;;1.95;;
76495;SDS011;65329;52.544;4.662;2023-02-24T17:08:30;8.32;;;1.73;;
76495;SDS011;65329;52.544;4.662;2023-02-24T17:10:57;7.75;;;1.35;;
76495;SDS011;65329;52.544;4.662;2023-02-24T17:13:24;7.47;;;2.40;;
76495;SDS011;65329;52.544;4.662;2023-02-24T17:15:53;7.90;;;1.95;;
76495;SDS011;65329;52.544;4.662;2023-02-24T17:18:23;8.32;;;1.88;;
76495;SDS011;65329;52.544;4.662;2023-02-24T17:20:51;13.35;;;3.30;;
76495;SDS011;65329;52.544;4.662;2023-02-24T17:23:18;8.43;;;2.65;;
76495;SDS011;65329;52.544;4.662;2023-02-24T17:25:46;11.18;;;2.05;;
76495;SDS011;65329;52.544;4.662;2023-02-24T17:28:17;12.55;;;2.03;;
76495;SDS011;65329;52.544;4.662;2023-02-24T17:30:44;17.38;;;3.25;;
76495;SDS011;65329;52.544;4.662;2023-02-24T17:33:11;18.33;;;3.22;;
76495;SDS011;65329;52.544;4.662;2023-02-24T17:35:41;14.52;;;3.28;;
76495;SDS011;65329;52.544;4.662;2023-02-24T17:38:10;14.85;;;3.40;;
76495;SDS011;65329;52.544;4.662;2023-02-24T17:40:39;18.10;;;2.60;;
76495;SDS011;65329;52.544;4.662;2023-02-24T17:43:06;17.05;;;3.80;;
76495;SDS011;65329;52.544;4.662;2023-02-24T17:45:33;11.10;;;2.88;;
76495;SDS011;65329;52.544;4.662;2023-02-24T17:48:00;16.60;;;3.10;;
76495;SDS011;65329;52.544;4.662;2023-02-24T17:50:27;14.73;;;3.15;;
76495;SDS011;65329;52.544;4.662;2023-02-24T17:52:54;12.60;;;3.60;;
76495;SDS011;65329;52.544;4.662;2023-02-24T17:55:23;17.52;;;2.88;;
76495;SDS011;65329;52.544;4.662;2023-02-24T17:57:50;17.73;;;3.63;;
76495;SDS011;65329;52.544;4.662;2023-02-24T18:00:17;13.45;;;2.28;;
76495;SDS011;65329;52.544;4.662;2023-02-24T18:02:44;11.27;;;2.22;;
76495;SDS011;65329;52.544;4.662;2023-02-24T18:05:11;9.05;;;2.47;;
76495;SDS011;65329;52.544;4.662;2023-02-24T18:07:38;11.57;;;2.50;;
76495;SDS011;65329;52.544;4.662;2023-02-24T18:10:05;12.90;;;2.30;;
76495;SDS011;65329;52.544;4.662;2023-02-24T18:12:32;12.45;;;2.83;;
76495;SDS011;65329;52.544;4.662;2023-02-24T18:14:59;16.48;;;3.33;;
76495;SDS011;65329;52.544;4.662;2023-02-24T18:17:35;12.05;;;2.78;;
76495;SDS011;65329;52.544;4.662;2023-02-24T18:20:03;15.20;;;2.50;;
76495;SDS011;65329;52.544;4.662;2023-02-24T18:22:31;15.20;;;3.50;;
76495;SDS011;65329;52.544;4.662;2023-02-24T18:24:58;10.55;;;3.65;;
76495;SDS011;65329;52.544;4.662;2023-02-24T18:27:26;9.77;;;2.58;;
76495;SDS011;65329;52.544;4.662;2023-02-24T18:29:53;4.80;;;1.55;;